Strona główna
METAR-TAF:

METAR-TAF

Lotnisko :

Elsenborn

Bütgenbach, Belgia

Szerokość geograficzna: 50-28N, Długość geograficzna: 006-11E, wysokość: 564 m

Aktualna obserwacja pogody

Raport powstał 1 godzina i 13 minut temu, godzina 02:55 UTC
Wiatr 8 kt od południowo-południowy zachód
Temperatura 0°C
Wilgotność 100%
Ciśnienie 1012 hPa
Widzialność: 2200 m
słaby deszcz

METAR: EBLB 110255Z AUTO 20008KT 2200 -RA BKN007/// OVC022/// 00/M00 Q1012 YLO

czas: 05:08 (04:08 UTC)


TAF: brakujący

Obserwacja i prognoza pogody dla ponad 4000 lotnisk (raport METAR i TAF).

Dostępne stacje oznaczono żółtymi i czerwonymi punktami na mapie.

Najedź kursorem aby zobaczyć nazwę stacji.

Kliknij aby zobaczyć obserwacje i prognozy pogody.

Aby zmienić mapę: kliknij na zielony przycisk z czarnym krzyżykiem, aby powiększyć; na zielony przycisk z myślnikiem, aby pomniejszyć; na zielone strzałki, aby przejść do map sąsiednich.


METAR-TAF: